sensor_id;sensor_type;location;lat;lon;timestamp;temperature;humidity
4306;DHT22;2166;49.926;8.608;2023-05-29T00:01:13;14.30;72.40
4306;DHT22;2166;49.926;8.608;2023-05-29T00:03:45;14.30;72.70
4306;DHT22;2166;49.926;8.608;2023-05-29T00:06:14;14.30;72.70
4306;DHT22;2166;49.926;8.608;2023-05-29T00:08:44;14.30;72.70
4306;DHT22;2166;49.926;8.608;2023-05-29T00:11:15;14.20;72.80
4306;DHT22;2166;49.926;8.608;2023-05-29T00:13:48;14.20;72.90
4306;DHT22;2166;49.926;8.608;2023-05-29T00:16:25;14.20;72.80
4306;DHT22;2166;49.926;8.608;2023-05-29T00:18:55;14.10;72.80
4306;DHT22;2166;49.926;8.608;2023-05-29T00:21:25;14.00;73.00
4306;DHT22;2166;49.926;8.608;2023-05-29T00:23:54;13.90;73.10
4306;DHT22;2166;49.926;8.608;2023-05-29T00:26:23;13.90;73.00
4306;DHT22;2166;49.926;8.608;2023-05-29T00:28:56;13.80;73.30
4306;DHT22;2166;49.926;8.608;2023-05-29T00:31:24;13.80;73.10
4306;DHT22;2166;49.926;8.608;2023-05-29T00:33:55;13.80;73.20
4306;DHT22;2166;49.926;8.608;2023-05-29T00:36:26;13.70;73.40
4306;DHT22;2166;49.926;8.608;2023-05-29T00:38:56;13.70;73.40
4306;DHT22;2166;49.926;8.608;2023-05-29T00:41:26;13.60;73.50
4306;DHT22;2166;49.926;8.608;2023-05-29T00:43:56;13.60;73.50
4306;DHT22;2166;49.926;8.608;2023-05-29T00:46:25;13.60;73.40
4306;DHT22;2166;49.926;8.608;2023-05-29T00:48:54;13.50;73.40
4306;DHT22;2166;49.926;8.608;2023-05-29T00:51:23;13.50;73.60
4306;DHT22;2166;49.926;8.608;2023-05-29T00:53:53;13.40;73.60
4306;DHT22;2166;49.926;8.608;2023-05-29T00:56:22;13.40;73.70
4306;DHT22;2166;49.926;8.608;2023-05-29T00:58:52;13.40;73.60
4306;DHT22;2166;49.926;8.608;2023-05-29T01:01:23;13.30;73.70
4306;DHT22;2166;49.926;8.608;2023-05-29T01:03:55;13.20;73.70
4306;DHT22;2166;49.926;8.608;2023-05-29T01:06:25;13.20;73.70
4306;DHT22;2166;49.926;8.608;2023-05-29T01:08:53;13.20;73.70
4306;DHT22;2166;49.926;8.608;2023-05-29T01:11:30;13.20;73.80
4306;DHT22;2166;49.926;8.608;2023-05-29T01:14:06;13.10;73.80
4306;DHT22;2166;49.926;8.608;2023-05-29T01:16:44;13.10;74.00
4306;DHT22;2166;49.926;8.608;2023-05-29T01:19:26;13.00;74.00
4306;DHT22;2166;49.926;8.608;2023-05-29T01:22:11;12.90;74.10
4306;DHT22;2166;49.926;8.608;2023-05-29T01:24:48;12.90;74.20
4306;DHT22;2166;49.926;8.608;2023-05-29T01:27:21;12.80;74.20
4306;DHT22;2166;49.926;8.608;2023-05-29T01:29:53;12.80;74.10
4306;DHT22;2166;49.926;8.608;2023-05-29T01:32:24;12.80;74.20
4306;DHT22;2166;49.926;8.608;2023-05-29T01:34:54;12.80;74.20
4306;DHT22;2166;49.926;8.608;2023-05-29T01:37:23;12.80;74.30
4306;DHT22;2166;49.926;8.608;2023-05-29T01:39:51;12.80;74.30
4306;DHT22;2166;49.926;8.608;2023-05-29T01:42:21;12.70;74.30
4306;DHT22;2166;49.926;8.608;2023-05-29T01:44:55;12.80;74.20
4306;DHT22;2166;49.926;8.608;2023-05-29T01:47:24;12.70;74.30
4306;DHT22;2166;49.926;8.608;2023-05-29T01:49:54;12.70;74.40
4306;DHT22;2166;49.926;8.608;2023-05-29T01:52:24;12.70;74.50
4306;DHT22;2166;49.926;8.608;2023-05-29T01:54:55;12.70;74.50
4306;DHT22;2166;49.926;8.608;2023-05-29T01:57:25;12.60;74.40
4306;DHT22;2166;49.926;8.608;2023-05-29T01:59:56;12.60;74.50
4306;DHT22;2166;49.926;8.608;2023-05-29T02:02:25;12.60;74.60
4306;DHT22;2166;49.926;8.608;2023-05-29T02:04:54;12.50;74.70
4306;DHT22;2166;49.926;8.608;2023-05-29T02:07:23;12.50;74.80
4306;DHT22;2166;49.926;8.608;2023-05-29T02:09:51;12.50;74.80
4306;DHT22;2166;49.926;8.608;2023-05-29T02:12:20;12.50;74.70
4306;DHT22;2166;49.926;8.608;2023-05-29T02:14:51;12.50;74.70
4306;DHT22;2166;49.926;8.608;2023-05-29T02:17:20;12.50;74.80
4306;DHT22;2166;49.926;8.608;2023-05-29T02:19:48;12.50;74.80
4306;DHT22;2166;49.926;8.608;2023-05-29T02:22:18;12.40;74.80
4306;DHT22;2166;49.926;8.608;2023-05-29T02:24:46;12.40;74.90
4306;DHT22;2166;49.926;8.608;2023-05-29T02:27:16;12.40;75.00
4306;DHT22;2166;49.926;8.608;2023-05-29T02:29:45;12.40;74.90
4306;DHT22;2166;49.926;8.608;2023-05-29T02:32:15;12.40;75.10
4306;DHT22;2166;49.926;8.608;2023-05-29T02:34:46;12.40;75.10
4306;DHT22;2166;49.926;8.608;2023-05-29T02:37:15;12.30;75.00
4306;DHT22;2166;49.926;8.608;2023-05-29T02:39:43;12.30;75.10
4306;DHT22;2166;49.926;8.608;2023-05-29T02:42:13;12.30;75.10
4306;DHT22;2166;49.926;8.608;2023-05-29T02:44:42;12.30;75.10
4306;DHT22;2166;49.926;8.608;2023-05-29T02:47:11;12.20;75.20
4306;DHT22;2166;49.926;8.608;2023-05-29T02:49:43;12.20;75.20
4306;DHT22;2166;49.926;8.608;2023-05-29T02:52:11;12.20;75.30
4306;DHT22;2166;49.926;8.608;2023-05-29T02:54:40;12.20;75.50
4306;DHT22;2166;49.926;8.608;2023-05-29T02:57:10;12.20;75.30
4306;DHT22;2166;49.926;8.608;2023-05-29T02:59:38;12.10;75.30
4306;DHT22;2166;49.926;8.608;2023-05-29T03:02:07;12.10;75.30
4306;DHT22;2166;49.926;8.608;2023-05-29T03:04:36;12.10;75.50
4306;DHT22;2166;49.926;8.608;2023-05-29T03:07:06;12.10;75.50
4306;DHT22;2166;49.926;8.608;2023-05-29T03:09:37;12.10;75.30
4306;DHT22;2166;49.926;8.608;2023-05-29T03:12:05;12.00;75.50
4306;DHT22;2166;49.926;8.608;2023-05-29T03:14:35;12.00;75.60
4306;DHT22;2166;49.926;8.608;2023-05-29T03:17:09;12.00;75.50
4306;DHT22;2166;49.926;8.608;2023-05-29T03:19:37;12.00;75.70
4306;DHT22;2166;49.926;8.608;2023-05-29T03:22:08;12.00;75.80
4306;DHT22;2166;49.926;8.608;2023-05-29T03:24:39;12.00;75.80
4306;DHT22;2166;49.926;8.608;2023-05-29T03:27:07;12.00;75.80
4306;DHT22;2166;49.926;8.608;2023-05-29T03:29:37;12.00;76.00
4306;DHT22;2166;49.926;8.608;2023-05-29T03:32:07;12.00;75.90
4306;DHT22;2166;49.926;8.608;2023-05-29T03:34:39;12.00;75.80
4306;DHT22;2166;49.926;8.608;2023-05-29T03:37:11;12.00;75.80
4306;DHT22;2166;49.926;8.608;2023-05-29T03:39:40;12.00;75.90
4306;DHT22;2166;49.926;8.608;2023-05-29T03:42:09;12.10;75.60
4306;DHT22;2166;49.926;8.608;2023-05-29T03:44:39;12.10;75.80
4306;DHT22;2166;49.926;8.608;2023-05-29T03:47:10;12.20;75.70
4306;DHT22;2166;49.926;8.608;2023-05-29T03:49:38;12.20;75.70
4306;DHT22;2166;49.926;8.608;2023-05-29T03:52:08;12.20;75.70
4306;DHT22;2166;49.926;8.608;2023-05-29T03:54:38;12.30;75.80
4306;DHT22;2166;49.926;8.608;2023-05-29T03:57:06;12.30;75.80
4306;DHT22;2166;49.926;8.608;2023-05-29T03:59:36;12.30;75.80
4306;DHT22;2166;49.926;8.608;2023-05-29T04:02:05;12.40;75.70
4306;DHT22;2166;49.926;8.608;2023-05-29T04:04:35;12.50;75.60
4306;DHT22;2166;49.926;8.608;2023-05-29T04:07:06;12.50;75.40
4306;DHT22;2166;49.926;8.608;2023-05-29T04:09:36;12.60;75.60
4306;DHT22;2166;49.926;8.608;2023-05-29T04:12:06;12.70;75.40
4306;DHT22;2166;49.926;8.608;2023-05-29T04:14:34;12.90;75.30
4306;DHT22;2166;49.926;8.608;2023-05-29T04:17:03;13.20;75.20
4306;DHT22;2166;49.926;8.608;2023-05-29T04:19:32;13.50;74.50
4306;DHT22;2166;49.926;8.608;2023-05-29T04:22:01;13.90;74.30
4306;DHT22;2166;49.926;8.608;2023-05-29T04:24:32;14.20;74.00
4306;DHT22;2166;49.926;8.608;2023-05-29T04:27:05;14.40;73.70
4306;DHT22;2166;49.926;8.608;2023-05-29T04:29:33;14.70;73.40
4306;DHT22;2166;49.926;8.608;2023-05-29T04:32:04;15.00;73.00
4306;DHT22;2166;49.926;8.608;2023-05-29T04:34:34;15.30;72.90
4306;DHT22;2166;49.926;8.608;2023-05-29T04:37:04;15.60;72.70
4306;DHT22;2166;49.926;8.608;2023-05-29T04:39:33;15.80;72.30
4306;DHT22;2166;49.926;8.608;2023-05-29T04:42:01;16.00;72.10
4306;DHT22;2166;49.926;8.608;2023-05-29T04:44:32;16.20;71.90
4306;DHT22;2166;49.926;8.608;2023-05-29T04:47:01;16.50;71.50
4306;DHT22;2166;49.926;8.608;2023-05-29T04:49:32;16.70;71.20
4306;DHT22;2166;49.926;8.608;2023-05-29T04:52:00;16.90;70.90
4306;DHT22;2166;49.926;8.608;2023-05-29T04:54:29;17.00;70.70
4306;DHT22;2166;49.926;8.608;2023-05-29T04:57:01;17.20;70.50
4306;DHT22;2166;49.926;8.608;2023-05-29T04:59:35;17.40;70.30
4306;DHT22;2166;49.926;8.608;2023-05-29T05:02:04;17.50;69.80
4306;DHT22;2166;49.926;8.608;2023-05-29T05:04:34;17.60;70.10
4306;DHT22;2166;49.926;8.608;2023-05-29T05:07:05;17.90;69.80
4306;DHT22;2166;49.926;8.608;2023-05-29T05:09:34;17.80;69.90
4306;DHT22;2166;49.926;8.608;2023-05-29T05:12:05;17.90;69.80
4306;DHT22;2166;49.926;8.608;2023-05-29T05:14:36;18.10;69.70
4306;DHT22;2166;49.926;8.608;2023-05-29T05:17:05;18.30;69.50
4306;DHT22;2166;49.926;8.608;2023-05-29T05:19:34;18.40;69.20
4306;DHT22;2166;49.926;8.608;2023-05-29T05:22:03;18.50;68.90
4306;DHT22;2166;49.926;8.608;2023-05-29T05:24:32;18.60;68.70
4306;DHT22;2166;49.926;8.608;2023-05-29T05:27:04;19.00;68.10
4306;DHT22;2166;49.926;8.608;2023-05-29T05:29:35;19.40;67.20
4306;DHT22;2166;49.926;8.608;2023-05-29T05:32:05;19.70;66.20
4306;DHT22;2166;49.926;8.608;2023-05-29T05:34:34;19.80;66.20
4306;DHT22;2166;49.926;8.608;2023-05-29T05:37:06;19.60;66.30
4306;DHT22;2166;49.926;8.608;2023-05-29T05:39:37;19.60;66.20
4306;DHT22;2166;49.926;8.608;2023-05-29T05:42:07;19.40;66.40
4306;DHT22;2166;49.926;8.608;2023-05-29T05:44:46;19.30;67.20
4306;DHT22;2166;49.926;8.608;2023-05-29T05:47:15;19.80;66.10
4306;DHT22;2166;49.926;8.608;2023-05-29T05:49:44;20.10;64.80
4306;DHT22;2166;49.926;8.608;2023-05-29T05:52:13;20.40;64.30
4306;DHT22;2166;49.926;8.608;2023-05-29T05:54:41;20.50;63.70
4306;DHT22;2166;49.926;8.608;2023-05-29T05:57:12;20.50;64.00
4306;DHT22;2166;49.926;8.608;2023-05-29T05:59:41;20.50;63.50
4306;DHT22;2166;49.926;8.608;2023-05-29T06:02:11;20.80;63.00
4306;DHT22;2166;49.926;8.608;2023-05-29T06:04:40;21.20;62.10
4306;DHT22;2166;49.926;8.608;2023-05-29T06:07:10;21.50;61.20
4306;DHT22;2166;49.926;8.608;2023-05-29T06:09:39;21.90;60.60
4306;DHT22;2166;49.926;8.608;2023-05-29T06:12:09;22.30;59.10
4306;DHT22;2166;49.926;8.608;2023-05-29T06:14:50;22.40;59.10
4306;DHT22;2166;49.926;8.608;2023-05-29T06:17:20;22.70;58.70
4306;DHT22;2166;49.926;8.608;2023-05-29T06:19:49;22.80;57.30
4306;DHT22;2166;49.926;8.608;2023-05-29T06:22:20;22.90;57.50
4306;DHT22;2166;49.926;8.608;2023-05-29T06:24:49;23.20;57.00
4306;DHT22;2166;49.926;8.608;2023-05-29T06:27:18;23.70;56.20
4306;DHT22;2166;49.926;8.608;2023-05-29T06:29:46;23.80;55.20
4306;DHT22;2166;49.926;8.608;2023-05-29T06:32:15;23.70;55.30
4306;DHT22;2166;49.926;8.608;2023-05-29T06:34:45;23.90;55.10
4306;DHT22;2166;49.926;8.608;2023-05-29T06:37:14;24.20;55.10
4306;DHT22;2166;49.926;8.608;2023-05-29T06:39:45;24.70;54.10
4306;DHT22;2166;49.926;8.608;2023-05-29T06:42:13;25.00;53.40
4306;DHT22;2166;49.926;8.608;2023-05-29T06:44:43;25.10;52.50
4306;DHT22;2166;49.926;8.608;2023-05-29T06:47:11;24.80;52.50
4306;DHT22;2166;49.926;8.608;2023-05-29T06:49:41;24.90;52.60
4306;DHT22;2166;49.926;8.608;2023-05-29T06:52:12;24.80;52.50
4306;DHT22;2166;49.926;8.608;2023-05-29T06:54:59;25.20;52.20
4306;DHT22;2166;49.926;8.608;2023-05-29T06:57:28;26.00;51.20
4306;DHT22;2166;49.926;8.608;2023-05-29T06:59:58;26.00;50.30
4306;DHT22;2166;49.926;8.608;2023-05-29T07:02:28;26.00;50.10
4306;DHT22;2166;49.926;8.608;2023-05-29T07:04:57;25.90;50.10
4306;DHT22;2166;49.926;8.608;2023-05-29T07:07:29;26.00;50.20
4306;DHT22;2166;49.926;8.608;2023-05-29T07:09:59;25.90;50.20
4306;DHT22;2166;49.926;8.608;2023-05-29T07:12:28;26.30;49.80
4306;DHT22;2166;49.926;8.608;2023-05-29T07:14:57;26.90;47.60
4306;DHT22;2166;49.926;8.608;2023-05-29T07:17:26;27.40;48.20
4306;DHT22;2166;49.926;8.608;2023-05-29T07:20:08;28.10;47.00
4306;DHT22;2166;49.926;8.608;2023-05-29T07:22:40;28.60;46.20
4306;DHT22;2166;49.926;8.608;2023-05-29T07:25:08;29.10;44.70
4306;DHT22;2166;49.926;8.608;2023-05-29T07:27:37;29.40;44.80
4306;DHT22;2166;49.926;8.608;2023-05-29T07:30:07;29.90;43.50
4306;DHT22;2166;49.926;8.608;2023-05-29T07:32:37;30.00;43.60
4306;DHT22;2166;49.926;8.608;2023-05-29T07:35:06;30.10;43.50
4306;DHT22;2166;49.926;8.608;2023-05-29T07:37:39;30.70;41.30
4306;DHT22;2166;49.926;8.608;2023-05-29T07:40:10;30.80;42.00
4306;DHT22;2166;49.926;8.608;2023-05-29T07:42:57;30.80;41.00
4306;DHT22;2166;49.926;8.608;2023-05-29T07:45:38;31.20;40.70
4306;DHT22;2166;49.926;8.608;2023-05-29T07:48:06;31.20;40.20
4306;DHT22;2166;49.926;8.608;2023-05-29T07:50:36;31.30;40.00
4306;DHT22;2166;49.926;8.608;2023-05-29T07:53:07;31.30;41.10
4306;DHT22;2166;49.926;8.608;2023-05-29T07:55:38;31.50;41.00
4306;DHT22;2166;49.926;8.608;2023-05-29T07:58:07;31.70;40.50
4306;DHT22;2166;49.926;8.608;2023-05-29T08:00:41;32.30;40.20
4306;DHT22;2166;49.926;8.608;2023-05-29T08:03:09;32.80;39.60
4306;DHT22;2166;49.926;8.608;2023-05-29T08:06:05;33.30;38.60
4306;DHT22;2166;49.926;8.608;2023-05-29T08:08:35;33.70;38.90
4306;DHT22;2166;49.926;8.608;2023-05-29T08:11:04;33.40;37.90
4306;DHT22;2166;49.926;8.608;2023-05-29T08:13:34;33.60;38.10
4306;DHT22;2166;49.926;8.608;2023-05-29T08:16:03;33.80;38.60
4306;DHT22;2166;49.926;8.608;2023-05-29T08:18:33;34.40;37.80
4306;DHT22;2166;49.926;8.608;2023-05-29T08:21:02;34.50;37.90
4306;DHT22;2166;49.926;8.608;2023-05-29T08:23:31;34.70;37.50
4306;DHT22;2166;49.926;8.608;2023-05-29T08:26:03;34.70;36.50
4306;DHT22;2166;49.926;8.608;2023-05-29T08:28:31;34.90;36.90
4306;DHT22;2166;49.926;8.608;2023-05-29T08:30:59;34.50;37.30
4306;DHT22;2166;49.926;8.608;2023-05-29T08:33:28;34.50;37.30
4306;DHT22;2166;49.926;8.608;2023-05-29T08:35:58;34.30;37.70
4306;DHT22;2166;49.926;8.608;2023-05-29T08:38:26;34.60;38.10
4306;DHT22;2166;49.926;8.608;2023-05-29T08:40:56;35.40;36.60
4306;DHT22;2166;49.926;8.608;2023-05-29T08:43:30;35.60;36.30
4306;DHT22;2166;49.926;8.608;2023-05-29T08:46:01;36.20;35.60
4306;DHT22;2166;49.926;8.608;2023-05-29T08:48:31;36.60;34.90
4306;DHT22;2166;49.926;8.608;2023-05-29T08:51:01;37.20;35.40
4306;DHT22;2166;49.926;8.608;2023-05-29T08:53:30;37.80;33.70
4306;DHT22;2166;49.926;8.608;2023-05-29T08:56:01;37.50;34.40
4306;DHT22;2166;49.926;8.608;2023-05-29T08:58:31;37.90;34.20
4306;DHT22;2166;49.926;8.608;2023-05-29T09:01:02;39.10;32.90
4306;DHT22;2166;49.926;8.608;2023-05-29T09:03:30;38.60;33.10
4306;DHT22;2166;49.926;8.608;2023-05-29T09:06:00;38.50;32.60
4306;DHT22;2166;49.926;8.608;2023-05-29T09:08:30;38.60;33.30
4306;DHT22;2166;49.926;8.608;2023-05-29T09:11:00;39.10;32.90
4306;DHT22;2166;49.926;8.608;2023-05-29T09:13:30;39.30;32.90
4306;DHT22;2166;49.926;8.608;2023-05-29T09:15:59;39.10;32.70
4306;DHT22;2166;49.926;8.608;2023-05-29T09:18:30;39.20;32.60
4306;DHT22;2166;49.926;8.608;2023-05-29T09:20:59;39.70;31.90
4306;DHT22;2166;49.926;8.608;2023-05-29T09:23:29;40.00;31.60
4306;DHT22;2166;49.926;8.608;2023-05-29T09:25:57;39.70;31.90
4306;DHT22;2166;49.926;8.608;2023-05-29T09:28:28;39.90;32.00
4306;DHT22;2166;49.926;8.608;2023-05-29T09:31:01;39.80;32.30
4306;DHT22;2166;49.926;8.608;2023-05-29T09:33:30;39.30;32.00
4306;DHT22;2166;49.926;8.608;2023-05-29T09:35:59;39.70;31.80
4306;DHT22;2166;49.926;8.608;2023-05-29T09:38:30;40.10;30.90
4306;DHT22;2166;49.926;8.608;2023-05-29T09:41:20;40.30;30.90
4306;DHT22;2166;49.926;8.608;2023-05-29T09:43:50;40.30;31.00
4306;DHT22;2166;49.926;8.608;2023-05-29T09:46:22;40.10;31.00
4306;DHT22;2166;49.926;8.608;2023-05-29T09:48:51;40.40;31.10
4306;DHT22;2166;49.926;8.608;2023-05-29T09:51:20;40.30;31.00
4306;DHT22;2166;49.926;8.608;2023-05-29T09:53:52;40.00;31.00
4306;DHT22;2166;49.926;8.608;2023-05-29T09:56:23;40.30;30.70
4306;DHT22;2166;49.926;8.608;2023-05-29T09:58:53;40.00;31.80
4306;DHT22;2166;49.926;8.608;2023-05-29T10:01:27;40.00;31.50
4306;DHT22;2166;49.926;8.608;2023-05-29T10:03:55;40.10;31.10
4306;DHT22;2166;49.926;8.608;2023-05-29T10:06:23;40.60;30.80
4306;DHT22;2166;49.926;8.608;2023-05-29T10:08:54;41.20;29.70
4306;DHT22;2166;49.926;8.608;2023-05-29T10:11:25;41.20;30.40
4306;DHT22;2166;49.926;8.608;2023-05-29T10:13:57;40.70;30.40
4306;DHT22;2166;49.926;8.608;2023-05-29T10:16:27;41.10;30.40
4306;DHT22;2166;49.926;8.608;2023-05-29T10:18:57;41.00;30.20
4306;DHT22;2166;49.926;8.608;2023-05-29T10:21:37;40.90;30.30
4306;DHT22;2166;49.926;8.608;2023-05-29T10:24:08;41.30;29.50
4306;DHT22;2166;49.926;8.608;2023-05-29T10:26:40;42.00;29.40
4306;DHT22;2166;49.926;8.608;2023-05-29T10:29:17;42.50;28.90
4306;DHT22;2166;49.926;8.608;2023-05-29T10:31:58;42.30;29.50
4306;DHT22;2166;49.926;8.608;2023-05-29T10:34:33;42.10;29.30
4306;DHT22;2166;49.926;8.608;2023-05-29T10:37:09;42.40;28.80
4306;DHT22;2166;49.926;8.608;2023-05-29T10:39:43;42.90;29.80
4306;DHT22;2166;49.926;8.608;2023-05-29T10:42:41;43.00;27.80
4306;DHT22;2166;49.926;8.608;2023-05-29T10:45:49;42.50;27.20
4306;DHT22;2166;49.926;8.608;2023-05-29T10:48:43;41.50;28.10
4306;DHT22;2166;49.926;8.608;2023-05-29T10:51:28;40.80;29.90
4306;DHT22;2166;49.926;8.608;2023-05-29T10:53:59;40.10;29.50
4306;DHT22;2166;49.926;8.608;2023-05-29T10:56:29;39.80;30.50
4306;DHT22;2166;49.926;8.608;2023-05-29T10:59:00;40.30;30.30
4306;DHT22;2166;49.926;8.608;2023-05-29T11:01:32;41.00;29.80
4306;DHT22;2166;49.926;8.608;2023-05-29T11:04:28;40.90;29.90
4306;DHT22;2166;49.926;8.608;2023-05-29T11:07:00;40.70;29.50
4306;DHT22;2166;49.926;8.608;2023-05-29T11:09:34;41.30;28.10
4306;DHT22;2166;49.926;8.608;2023-05-29T11:12:11;42.20;28.80
4306;DHT22;2166;49.926;8.608;2023-05-29T11:14:47;41.40;28.30
4306;DHT22;2166;49.926;8.608;2023-05-29T11:17:34;41.90;27.60
4306;DHT22;2166;49.926;8.608;2023-05-29T11:20:35;41.20;28.70
4306;DHT22;2166;49.926;8.608;2023-05-29T11:23:05;41.30;27.90
4306;DHT22;2166;49.926;8.608;2023-05-29T11:25:36;42.00;27.10
4306;DHT22;2166;49.926;8.608;2023-05-29T11:28:07;40.50;29.00
4306;DHT22;2166;49.926;8.608;2023-05-29T11:30:44;39.90;30.40
4306;DHT22;2166;49.926;8.608;2023-05-29T11:33:42;40.00;29.00
4306;DHT22;2166;49.926;8.608;2023-05-29T11:36:26;39.80;30.10
4306;DHT22;2166;49.926;8.608;2023-05-29T11:38:57;39.70;29.40
4306;DHT22;2166;49.926;8.608;2023-05-29T11:41:27;40.20;28.80
4306;DHT22;2166;49.926;8.608;2023-05-29T11:43:57;40.50;29.10
4306;DHT22;2166;49.926;8.608;2023-05-29T11:46:26;40.90;29.00
4306;DHT22;2166;49.926;8.608;2023-05-29T11:48:58;41.00;29.60
4306;DHT22;2166;49.926;8.608;2023-05-29T11:51:28;41.00;28.70
4306;DHT22;2166;49.926;8.608;2023-05-29T11:53:57;41.70;28.50
4306;DHT22;2166;49.926;8.608;2023-05-29T11:56:27;40.70;29.40
4306;DHT22;2166;49.926;8.608;2023-05-29T11:58:58;40.20;30.00
4306;DHT22;2166;49.926;8.608;2023-05-29T12:01:27;40.40;29.80
4306;DHT22;2166;49.926;8.608;2023-05-29T12:03:58;40.30;29.70
4306;DHT22;2166;49.926;8.608;2023-05-29T12:06:35;40.80;30.00
4306;DHT22;2166;49.926;8.608;2023-05-29T12:09:05;41.30;28.90
4306;DHT22;2166;49.926;8.608;2023-05-29T12:11:34;41.20;29.40
4306;DHT22;2166;49.926;8.608;2023-05-29T12:14:03;42.00;28.20
4306;DHT22;2166;49.926;8.608;2023-05-29T12:16:33;42.70;28.60
4306;DHT22;2166;49.926;8.608;2023-05-29T12:19:04;42.70;27.30
4306;DHT22;2166;49.926;8.608;2023-05-29T12:21:42;42.40;27.30
4306;DHT22;2166;49.926;8.608;2023-05-29T12:24:12;42.00;27.70
4306;DHT22;2166;49.926;8.608;2023-05-29T12:26:42;42.10;28.60
4306;DHT22;2166;49.926;8.608;2023-05-29T12:29:10;41.90;27.70
4306;DHT22;2166;49.926;8.608;2023-05-29T12:31:39;42.30;27.10
4306;DHT22;2166;49.926;8.608;2023-05-29T12:34:10;42.40;28.10
4306;DHT22;2166;49.926;8.608;2023-05-29T12:36:44;42.30;27.60
4306;DHT22;2166;49.926;8.608;2023-05-29T12:39:12;42.40;27.10
4306;DHT22;2166;49.926;8.608;2023-05-29T12:41:43;41.70;26.60
4306;DHT22;2166;49.926;8.608;2023-05-29T12:44:14;41.00;28.30
4306;DHT22;2166;49.926;8.608;2023-05-29T12:46:43;40.40;27.90
4306;DHT22;2166;49.926;8.608;2023-05-29T12:49:15;40.30;28.10
4306;DHT22;2166;49.926;8.608;2023-05-29T12:51:45;40.50;29.30
4306;DHT22;2166;49.926;8.608;2023-05-29T12:54:16;40.40;27.70
4306;DHT22;2166;49.926;8.608;2023-05-29T12:56:45;39.70;27.60
4306;DHT22;2166;49.926;8.608;2023-05-29T12:59:14;39.30;27.50
4306;DHT22;2166;49.926;8.608;2023-05-29T13:01:43;39.10;27.60
4306;DHT22;2166;49.926;8.608;2023-05-29T13:04:12;39.00;26.60
4306;DHT22;2166;49.926;8.608;2023-05-29T13:06:40;38.10;27.60
4306;DHT22;2166;49.926;8.608;2023-05-29T13:09:14;38.40;27.70
4306;DHT22;2166;49.926;8.608;2023-05-29T13:11:42;38.50;29.10
4306;DHT22;2166;49.926;8.608;2023-05-29T13:14:11;38.60;28.50
4306;DHT22;2166;49.926;8.608;2023-05-29T13:16:39;38.30;28.80
4306;DHT22;2166;49.926;8.608;2023-05-29T13:19:08;38.50;29.60
4306;DHT22;2166;49.926;8.608;2023-05-29T13:21:37;39.10;29.00
4306;DHT22;2166;49.926;8.608;2023-05-29T13:24:06;40.30;27.70
4306;DHT22;2166;49.926;8.608;2023-05-29T13:26:36;41.00;27.50
4306;DHT22;2166;49.926;8.608;2023-05-29T13:29:05;41.20;26.90
4306;DHT22;2166;49.926;8.608;2023-05-29T13:31:33;40.80;27.60
4306;DHT22;2166;49.926;8.608;2023-05-29T13:34:01;40.20;27.10
4306;DHT22;2166;49.926;8.608;2023-05-29T13:36:31;40.30;27.60
4306;DHT22;2166;49.926;8.608;2023-05-29T13:39:00;40.50;26.90
4306;DHT22;2166;49.926;8.608;2023-05-29T13:41:28;40.40;28.30
4306;DHT22;2166;49.926;8.608;2023-05-29T13:43:59;40.00;28.40
4306;DHT22;2166;49.926;8.608;2023-05-29T13:46:29;40.00;28.20
4306;DHT22;2166;49.926;8.608;2023-05-29T13:48:58;39.10;28.90
4306;DHT22;2166;49.926;8.608;2023-05-29T13:51:28;38.30;28.90
4306;DHT22;2166;49.926;8.608;2023-05-29T13:53:57;38.10;28.90
4306;DHT22;2166;49.926;8.608;2023-05-29T13:56:25;38.00;30.00
4306;DHT22;2166;49.926;8.608;2023-05-29T13:58:54;37.50;30.30
4306;DHT22;2166;49.926;8.608;2023-05-29T14:01:24;37.30;30.80
4306;DHT22;2166;49.926;8.608;2023-05-29T14:03:52;37.40;29.90
4306;DHT22;2166;49.926;8.608;2023-05-29T14:06:21;37.70;30.30
4306;DHT22;2166;49.926;8.608;2023-05-29T14:08:50;38.00;30.30
4306;DHT22;2166;49.926;8.608;2023-05-29T14:11:20;38.00;28.90
4306;DHT22;2166;49.926;8.608;2023-05-29T14:13:49;37.70;29.10
4306;DHT22;2166;49.926;8.608;2023-05-29T14:16:17;37.70;29.20
4306;DHT22;2166;49.926;8.608;2023-05-29T14:18:49;37.90;28.90
4306;DHT22;2166;49.926;8.608;2023-05-29T14:21:18;38.10;29.20
4306;DHT22;2166;49.926;8.608;2023-05-29T14:23:47;38.10;30.20
4306;DHT22;2166;49.926;8.608;2023-05-29T14:26:16;37.50;30.40
4306;DHT22;2166;49.926;8.608;2023-05-29T14:28:44;37.20;29.30
4306;DHT22;2166;49.926;8.608;2023-05-29T14:31:14;37.50;29.90
4306;DHT22;2166;49.926;8.608;2023-05-29T14:33:44;37.00;30.70
4306;DHT22;2166;49.926;8.608;2023-05-29T14:36:17;36.60;31.20
4306;DHT22;2166;49.926;8.608;2023-05-29T14:38:46;36.50;31.00
4306;DHT22;2166;49.926;8.608;2023-05-29T14:41:16;36.30;32.10
4306;DHT22;2166;49.926;8.608;2023-05-29T14:43:44;36.40;32.60
4306;DHT22;2166;49.926;8.608;2023-05-29T14:46:14;36.80;31.80
4306;DHT22;2166;49.926;8.608;2023-05-29T14:48:43;36.80;30.60
4306;DHT22;2166;49.926;8.608;2023-05-29T14:51:14;36.90;30.30
4306;DHT22;2166;49.926;8.608;2023-05-29T14:53:45;37.00;30.30
4306;DHT22;2166;49.926;8.608;2023-05-29T14:56:13;36.30;31.00
4306;DHT22;2166;49.926;8.608;2023-05-29T14:58:42;35.90;32.00
4306;DHT22;2166;49.926;8.608;2023-05-29T15:01:10;35.80;31.80
4306;DHT22;2166;49.926;8.608;2023-05-29T15:03:39;35.70;32.10
4306;DHT22;2166;49.926;8.608;2023-05-29T15:06:09;35.50;32.80
4306;DHT22;2166;49.926;8.608;2023-05-29T15:08:39;35.10;32.60
4306;DHT22;2166;49.926;8.608;2023-05-29T15:11:11;35.00;33.30
4306;DHT22;2166;49.926;8.608;2023-05-29T15:13:42;34.90;34.10
4306;DHT22;2166;49.926;8.608;2023-05-29T15:16:13;35.00;34.50
4306;DHT22;2166;49.926;8.608;2023-05-29T15:18:42;35.30;33.90
4306;DHT22;2166;49.926;8.608;2023-05-29T15:21:10;35.30;33.00
4306;DHT22;2166;49.926;8.608;2023-05-29T15:23:38;35.30;33.50
4306;DHT22;2166;49.926;8.608;2023-05-29T15:26:09;35.00;33.10
4306;DHT22;2166;49.926;8.608;2023-05-29T15:28:38;34.70;33.30
4306;DHT22;2166;49.926;8.608;2023-05-29T15:31:06;34.80;35.00
4306;DHT22;2166;49.926;8.608;2023-05-29T15:33:35;34.50;35.80
4306;DHT22;2166;49.926;8.608;2023-05-29T15:36:04;34.40;35.60
4306;DHT22;2166;49.926;8.608;2023-05-29T15:38:33;34.00;36.30
4306;DHT22;2166;49.926;8.608;2023-05-29T15:41:02;34.10;36.80
4306;DHT22;2166;49.926;8.608;2023-05-29T15:43:33;34.20;35.50
4306;DHT22;2166;49.926;8.608;2023-05-29T15:46:01;34.20;35.00
4306;DHT22;2166;49.926;8.608;2023-05-29T15:48:30;33.90;35.30
4306;DHT22;2166;49.926;8.608;2023-05-29T15:50:59;33.40;36.40
4306;DHT22;2166;49.926;8.608;2023-05-29T15:53:29;33.20;36.20
4306;DHT22;2166;49.926;8.608;2023-05-29T15:55:57;33.00;37.30
4306;DHT22;2166;49.926;8.608;2023-05-29T15:58:26;32.60;38.00
4306;DHT22;2166;49.926;8.608;2023-05-29T16:00:58;32.30;38.60
4306;DHT22;2166;49.926;8.608;2023-05-29T16:03:29;32.30;38.70
4306;DHT22;2166;49.926;8.608;2023-05-29T16:05:58;32.20;38.30
4306;DHT22;2166;49.926;8.608;2023-05-29T16:08:26;31.70;39.60
4306;DHT22;2166;49.926;8.608;2023-05-29T16:10:55;31.80;40.20
4306;DHT22;2166;49.926;8.608;2023-05-29T16:13:27;31.70;39.90
4306;DHT22;2166;49.926;8.608;2023-05-29T16:15:58;31.70;40.50
4306;DHT22;2166;49.926;8.608;2023-05-29T16:18:27;31.60;39.90
4306;DHT22;2166;49.926;8.608;2023-05-29T16:20:58;30.90;41.10
4306;DHT22;2166;49.926;8.608;2023-05-29T16:23:26;30.60;41.00
4306;DHT22;2166;49.926;8.608;2023-05-29T16:25:58;30.50;40.80